sensor_id;sensor_type;location;lat;lon;timestamp;pressure;altitude;pressure_sealevel;temperature;humidity
36502;BME280;25393;46.108;3.390;2023-05-02T00:01:30;98346.47;;;11.32;100.00
36502;BME280;25393;46.108;3.390;2023-05-02T00:03:56;98347.78;;;11.28;100.00
36502;BME280;25393;46.108;3.390;2023-05-02T00:06:23;98356.41;;;11.38;100.00
36502;BME280;25393;46.108;3.390;2023-05-02T00:08:50;98356.22;;;11.40;100.00
36502;BME280;25393;46.108;3.390;2023-05-02T00:11:16;98347.78;;;11.36;100.00
36502;BME280;25393;46.108;3.390;2023-05-02T00:13:43;98346.13;;;11.35;99.91
36502;BME280;25393;46.108;3.390;2023-05-02T00:16:09;98351.91;;;11.31;99.48
36502;BME280;25393;46.108;3.390;2023-05-02T00:18:36;98342.47;;;11.28;98.08
36502;BME280;25393;46.108;3.390;2023-05-02T00:21:03;98341.47;;;11.13;97.98
36502;BME280;25393;46.108;3.390;2023-05-02T00:23:30;98328.69;;;11.09;97.33
36502;BME280;25393;46.108;3.390;2023-05-02T00:25:57;98341.63;;;11.03;97.08
36502;BME280;25393;46.108;3.390;2023-05-02T00:28:23;98350.41;;;11.04;96.83
36502;BME280;25393;46.108;3.390;2023-05-02T00:30:52;98342.59;;;10.94;95.83
36502;BME280;25393;46.108;3.390;2023-05-02T00:33:18;98343.75;;;10.92;95.02
36502;BME280;25393;46.108;3.390;2023-05-02T00:35:45;98345.75;;;10.90;94.35
36502;BME280;25393;46.108;3.390;2023-05-02T00:38:11;98339.44;;;10.83;94.35
36502;BME280;25393;46.108;3.390;2023-05-02T00:40:45;98335.59;;;10.77;95.54
36502;BME280;25393;46.108;3.390;2023-05-02T00:43:13;98329.47;;;10.77;93.46
36502;BME280;25393;46.108;3.390;2023-05-02T00:45:41;98331.13;;;10.70;93.01
36502;BME280;25393;46.108;3.390;2023-05-02T00:48:09;98326.47;;;10.64;93.39
36502;BME280;25393;46.108;3.390;2023-05-02T00:50:37;98318.66;;;10.54;94.04
36502;BME280;25393;46.108;3.390;2023-05-02T00:53:04;98323.47;;;10.50;94.15
36502;BME280;25393;46.108;3.390;2023-05-02T00:55:34;98319.97;;;10.50;94.93
36502;BME280;25393;46.108;3.390;2023-05-02T00:58:04;98325.44;;;10.48;95.82
36502;BME280;25393;46.108;3.390;2023-05-02T01:00:57;98335.41;;;10.55;96.82
36502;BME280;25393;46.108;3.390;2023-05-02T01:12:00;98345.00;;;10.47;99.11
36502;BME280;25393;46.108;3.390;2023-05-02T01:14:52;98341.28;;;10.32;100.00
36502;BME280;25393;46.108;3.390;2023-05-02T01:17:22;98337.59;;;10.25;99.58
36502;BME280;25393;46.108;3.390;2023-05-02T01:19:52;98344.72;;;10.25;97.99
36502;BME280;25393;46.108;3.390;2023-05-02T01:22:21;98331.47;;;10.25;97.71
36502;BME280;25393;46.108;3.390;2023-05-02T01:25:08;98334.31;;;10.31;96.21
36502;BME280;25393;46.108;3.390;2023-05-02T01:30:13;98340.38;;;10.16;95.16
36502;BME280;25393;46.108;3.390;2023-05-02T01:32:44;98341.94;;;10.00;93.60
36502;BME280;25393;46.108;3.390;2023-05-02T01:35:16;98340.75;;;9.95;93.59
36502;BME280;25393;46.108;3.390;2023-05-02T01:37:44;98340.00;;;9.77;93.54
36502;BME280;25393;46.108;3.390;2023-05-02T01:40:16;98354.97;;;9.68;95.08
36502;BME280;25393;46.108;3.390;2023-05-02T01:42:44;98353.88;;;9.79;93.96
36502;BME280;25393;46.108;3.390;2023-05-02T01:45:16;98347.72;;;9.70;93.83
36502;BME280;25393;46.108;3.390;2023-05-02T01:47:44;98343.06;;;9.46;94.75
36502;BME280;25393;46.108;3.390;2023-05-02T01:50:14;98349.38;;;9.45;94.74
36502;BME280;25393;46.108;3.390;2023-05-02T01:52:44;98358.22;;;9.36;96.60
36502;BME280;25393;46.108;3.390;2023-05-02T01:55:14;98359.97;;;9.28;98.52
36502;BME280;25393;46.108;3.390;2023-05-02T01:57:43;98351.97;;;9.20;100.00
36502;BME280;25393;46.108;3.390;2023-05-02T02:00:11;98354.81;;;9.26;100.00
36502;BME280;25393;46.108;3.390;2023-05-02T02:02:40;98362.22;;;9.40;100.00
36502;BME280;25393;46.108;3.390;2023-05-02T02:05:08;98375.41;;;9.58;100.00
36502;BME280;25393;46.108;3.390;2023-05-02T02:07:39;98377.38;;;9.74;100.00
36502;BME280;25393;46.108;3.390;2023-05-02T02:10:09;98366.47;;;9.77;100.00
36502;BME280;25393;46.108;3.390;2023-05-02T02:12:50;98364.84;;;9.84;100.00
36502;BME280;25393;46.108;3.390;2023-05-02T02:15:20;98368.84;;;9.88;100.00
36502;BME280;25393;46.108;3.390;2023-05-02T02:17:54;98374.16;;;9.96;100.00
36502;BME280;25393;46.108;3.390;2023-05-02T02:20:22;98373.50;;;9.94;100.00
36502;BME280;25393;46.108;3.390;2023-05-02T02:22:49;98385.13;;;10.01;100.00
36502;BME280;25393;46.108;3.390;2023-05-02T02:25:18;98379.84;;;10.01;100.00
36502;BME280;25393;46.108;3.390;2023-05-02T02:27:46;98383.66;;;10.07;100.00
36502;BME280;25393;46.108;3.390;2023-05-02T02:30:12;98385.78;;;10.03;100.00
36502;BME280;25393;46.108;3.390;2023-05-02T02:32:39;98384.19;;;10.10;100.00
36502;BME280;25393;46.108;3.390;2023-05-02T02:35:06;98366.59;;;10.01;100.00
36502;BME280;25393;46.108;3.390;2023-05-02T02:37:52;98367.94;;;10.05;100.00
36502;BME280;25393;46.108;3.390;2023-05-02T02:43:04;98379.06;;;10.09;100.00
36502;BME280;25393;46.108;3.390;2023-05-02T02:45:37;98387.22;;;10.15;100.00
36502;BME280;25393;46.108;3.390;2023-05-02T02:48:18;98383.28;;;10.19;100.00
36502;BME280;25393;46.108;3.390;2023-05-02T02:51:31;98403.56;;;10.36;100.00
36502;BME280;25393;46.108;3.390;2023-05-02T02:54:23;98371.41;;;10.31;100.00
36502;BME280;25393;46.108;3.390;2023-05-02T02:57:05;98388.50;;;10.37;100.00
36502;BME280;25393;46.108;3.390;2023-05-02T02:59:34;98379.06;;;10.34;100.00
36502;BME280;25393;46.108;3.390;2023-05-02T03:02:08;98369.25;;;10.27;100.00
36502;BME280;25393;46.108;3.390;2023-05-02T03:04:40;98388.19;;;10.40;100.00
36502;BME280;25393;46.108;3.390;2023-05-02T03:07:13;98382.56;;;10.43;100.00
36502;BME280;25393;46.108;3.390;2023-05-02T03:09:46;98389.03;;;10.48;100.00
36502;BME280;25393;46.108;3.390;2023-05-02T03:12:13;98373.78;;;10.42;100.00
36502;BME280;25393;46.108;3.390;2023-05-02T03:14:41;98374.47;;;10.52;100.00
36502;BME280;25393;46.108;3.390;2023-05-02T03:17:07;98377.50;;;10.58;100.00
36502;BME280;25393;46.108;3.390;2023-05-02T03:19:37;98383.13;;;10.63;100.00
36502;BME280;25393;46.108;3.390;2023-05-02T03:22:04;98386.41;;;10.57;100.00
36502;BME280;25393;46.108;3.390;2023-05-02T03:24:31;98376.63;;;10.49;100.00
36502;BME280;25393;46.108;3.390;2023-05-02T03:26:57;98386.69;;;10.45;100.00
36502;BME280;25393;46.108;3.390;2023-05-02T03:29:25;98397.44;;;10.36;100.00
36502;BME280;25393;46.108;3.390;2023-05-02T03:31:52;98397.63;;;10.34;100.00
36502;BME280;25393;46.108;3.390;2023-05-02T03:34:18;98390.63;;;10.33;100.00
36502;BME280;25393;46.108;3.390;2023-05-02T03:36:47;98395.75;;;10.35;100.00
36502;BME280;25393;46.108;3.390;2023-05-02T03:39:14;98389.94;;;10.31;100.00
36502;BME280;25393;46.108;3.390;2023-05-02T03:41:45;98397.03;;;10.23;100.00
36502;BME280;25393;46.108;3.390;2023-05-02T03:44:14;98392.31;;;10.09;100.00
36502;BME280;25393;46.108;3.390;2023-05-02T03:46:44;98386.44;;;9.97;100.00
36502;BME280;25393;46.108;3.390;2023-05-02T03:49:13;98393.66;;;10.13;100.00
36502;BME280;25393;46.108;3.390;2023-05-02T03:51:43;98386.59;;;9.95;99.64
36502;BME280;25393;46.108;3.390;2023-05-02T03:54:09;98392.94;;;9.77;100.00
36502;BME280;25393;46.108;3.390;2023-05-02T03:56:38;98398.84;;;9.71;100.00
36502;BME280;25393;46.108;3.390;2023-05-02T03:59:08;98399.72;;;9.79;100.00
36502;BME280;25393;46.108;3.390;2023-05-02T04:01:34;98389.66;;;9.83;100.00
36502;BME280;25393;46.108;3.390;2023-05-02T04:04:01;98393.28;;;9.82;100.00
36502;BME280;25393;46.108;3.390;2023-05-02T04:06:27;98389.66;;;9.39;100.00
36502;BME280;25393;46.108;3.390;2023-05-02T04:08:54;98406.06;;;9.43;100.00
36502;BME280;25393;46.108;3.390;2023-05-02T04:11:20;98406.13;;;9.33;100.00
36502;BME280;25393;46.108;3.390;2023-05-02T04:13:47;98418.47;;;9.25;100.00
36502;BME280;25393;46.108;3.390;2023-05-02T04:16:14;98417.56;;;9.16;100.00
36502;BME280;25393;46.108;3.390;2023-05-02T04:18:41;98424.31;;;9.28;100.00
36502;BME280;25393;46.108;3.390;2023-05-02T04:21:09;98422.84;;;9.34;100.00
36502;BME280;25393;46.108;3.390;2023-05-02T04:23:36;98424.66;;;9.33;99.59
36502;BME280;25393;46.108;3.390;2023-05-02T04:26:03;98417.13;;;9.38;99.62
36502;BME280;25393;46.108;3.390;2023-05-02T04:28:29;98417.88;;;9.31;100.00
36502;BME280;25393;46.108;3.390;2023-05-02T04:30:55;98431.84;;;9.41;100.00
36502;BME280;25393;46.108;3.390;2023-05-02T04:33:23;98421.72;;;9.36;100.00
36502;BME280;25393;46.108;3.390;2023-05-02T04:35:49;98414.47;;;9.38;100.00
36502;BME280;25393;46.108;3.390;2023-05-02T04:38:16;98425.56;;;9.42;100.00
36502;BME280;25393;46.108;3.390;2023-05-02T04:40:43;98437.44;;;9.56;100.00
36502;BME280;25393;46.108;3.390;2023-05-02T04:43:11;98440.81;;;9.66;100.00
36502;BME280;25393;46.108;3.390;2023-05-02T04:45:37;98428.63;;;9.73;100.00
36502;BME280;25393;46.108;3.390;2023-05-02T04:48:04;98433.81;;;9.82;100.00
36502;BME280;25393;46.108;3.390;2023-05-02T04:50:31;98434.78;;;9.99;100.00
36502;BME280;25393;46.108;3.390;2023-05-02T04:52:58;98442.75;;;10.07;100.00
36502;BME280;25393;46.108;3.390;2023-05-02T04:55:24;98436.81;;;10.05;100.00
36502;BME280;25393;46.108;3.390;2023-05-02T04:57:51;98440.28;;;10.06;100.00
36502;BME280;25393;46.108;3.390;2023-05-02T05:00:18;98448.16;;;10.15;100.00
36502;BME280;25393;46.108;3.390;2023-05-02T05:02:47;98439.81;;;10.10;100.00
36502;BME280;25393;46.108;3.390;2023-05-02T05:05:15;98446.16;;;10.17;100.00
36502;BME280;25393;46.108;3.390;2023-05-02T05:07:41;98455.47;;;10.21;100.00
36502;BME280;25393;46.108;3.390;2023-05-02T05:10:08;98463.47;;;10.29;100.00
36502;BME280;25393;46.108;3.390;2023-05-02T05:12:36;98451.25;;;10.36;100.00
36502;BME280;25393;46.108;3.390;2023-05-02T05:15:03;98452.94;;;10.45;100.00
36502;BME280;25393;46.108;3.390;2023-05-02T05:17:30;98458.44;;;10.44;100.00
36502;BME280;25393;46.108;3.390;2023-05-02T05:19:56;98441.63;;;10.35;100.00
36502;BME280;25393;46.108;3.390;2023-05-02T05:22:23;98466.41;;;10.52;100.00
36502;BME280;25393;46.108;3.390;2023-05-02T05:24:53;98478.53;;;10.63;100.00
36502;BME280;25393;46.108;3.390;2023-05-02T05:27:20;98484.22;;;10.68;100.00
36502;BME280;25393;46.108;3.390;2023-05-02T05:29:47;98479.94;;;10.75;100.00
36502;BME280;25393;46.108;3.390;2023-05-02T05:32:16;98480.50;;;10.86;100.00
36502;BME280;25393;46.108;3.390;2023-05-02T05:34:50;98490.31;;;10.94;100.00
36502;BME280;25393;46.108;3.390;2023-05-02T05:37:17;98500.59;;;11.05;100.00
36502;BME280;25393;46.108;3.390;2023-05-02T05:39:46;98498.31;;;11.10;100.00
36502;BME280;25393;46.108;3.390;2023-05-02T05:42:17;98500.31;;;11.16;100.00
36502;BME280;25393;46.108;3.390;2023-05-02T05:44:48;98506.22;;;11.02;100.00
36502;BME280;25393;46.108;3.390;2023-05-02T05:47:18;98502.72;;;10.93;100.00
36502;BME280;25393;46.108;3.390;2023-05-02T05:49:51;98496.13;;;10.97;100.00
36502;BME280;25393;46.108;3.390;2023-05-02T05:52:18;98489.66;;;11.00;100.00
36502;BME280;25393;46.108;3.390;2023-05-02T05:54:47;98500.97;;;11.10;100.00
36502;BME280;25393;46.108;3.390;2023-05-02T05:57:16;98484.38;;;11.08;100.00
36502;BME280;25393;46.108;3.390;2023-05-02T05:59:43;98490.56;;;11.25;100.00
36502;BME280;25393;46.108;3.390;2023-05-02T06:02:17;98488.09;;;11.31;100.00
36502;BME280;25393;46.108;3.390;2023-05-02T06:04:46;98496.03;;;11.23;100.00
36502;BME280;25393;46.108;3.390;2023-05-02T06:07:13;98487.59;;;11.36;100.00
36502;BME280;25393;46.108;3.390;2023-05-02T06:09:41;98489.59;;;11.42;100.00
36502;BME280;25393;46.108;3.390;2023-05-02T06:12:08;98494.09;;;11.49;100.00
36502;BME280;25393;46.108;3.390;2023-05-02T06:14:34;98493.41;;;11.47;100.00
36502;BME280;25393;46.108;3.390;2023-05-02T06:17:01;98489.63;;;11.58;100.00
36502;BME280;25393;46.108;3.390;2023-05-02T06:19:28;98498.44;;;11.67;100.00
36502;BME280;25393;46.108;3.390;2023-05-02T06:21:55;98481.22;;;11.71;100.00
36502;BME280;25393;46.108;3.390;2023-05-02T06:24:21;98491.81;;;11.79;100.00
36502;BME280;25393;46.108;3.390;2023-05-02T06:26:48;98487.69;;;11.92;100.00
36502;BME280;25393;46.108;3.390;2023-05-02T06:29:16;98480.19;;;12.04;100.00
36502;BME280;25393;46.108;3.390;2023-05-02T06:31:43;98475.38;;;12.16;100.00
36502;BME280;25393;46.108;3.390;2023-05-02T06:34:11;98465.59;;;12.24;100.00
36502;BME280;25393;46.108;3.390;2023-05-02T06:36:37;98465.69;;;12.39;100.00
36502;BME280;25393;46.108;3.390;2023-05-02T06:39:04;98471.81;;;12.47;100.00
36502;BME280;25393;46.108;3.390;2023-05-02T06:41:30;98485.91;;;12.64;100.00
36502;BME280;25393;46.108;3.390;2023-05-02T06:43:57;98482.53;;;12.78;100.00
36502;BME280;25393;46.108;3.390;2023-05-02T06:46:27;98484.91;;;13.04;99.81
36502;BME280;25393;46.108;3.390;2023-05-02T06:48:54;98483.81;;;13.29;94.28
36502;BME280;25393;46.108;3.390;2023-05-02T06:51:20;98486.41;;;13.37;93.04
36502;BME280;25393;46.108;3.390;2023-05-02T06:53:47;98490.13;;;13.59;94.00
36502;BME280;25393;46.108;3.390;2023-05-02T06:56:17;98485.63;;;13.82;91.15
36502;BME280;25393;46.108;3.390;2023-05-02T06:58:44;98477.44;;;14.07;89.31
36502;BME280;25393;46.108;3.390;2023-05-02T07:01:17;98481.53;;;14.32;87.63
36502;BME280;25393;46.108;3.390;2023-05-02T07:03:45;98484.53;;;14.52;85.19
36502;BME280;25393;46.108;3.390;2023-05-02T07:06:12;98480.00;;;14.37;80.87
36502;BME280;25393;46.108;3.390;2023-05-02T07:08:42;98492.22;;;14.46;83.85
36502;BME280;25393;46.108;3.390;2023-05-02T07:11:11;98479.56;;;14.63;82.00
36502;BME280;25393;46.108;3.390;2023-05-02T07:13:37;98477.53;;;14.80;80.09
36502;BME280;25393;46.108;3.390;2023-05-02T07:16:04;98484.88;;;14.78;80.59
36502;BME280;25393;46.108;3.390;2023-05-02T07:18:31;98483.41;;;14.75;80.15
36502;BME280;25393;46.108;3.390;2023-05-02T07:20:57;98491.97;;;14.85;80.83
36502;BME280;25393;46.108;3.390;2023-05-02T07:23:24;98493.31;;;15.11;80.44
36502;BME280;25393;46.108;3.390;2023-05-02T07:25:51;98496.13;;;15.53;79.18
36502;BME280;25393;46.108;3.390;2023-05-02T07:28:17;98493.47;;;15.95;77.94
36502;BME280;25393;46.108;3.390;2023-05-02T07:30:45;98477.03;;;15.98;72.61
36502;BME280;25393;46.108;3.390;2023-05-02T07:33:17;98487.72;;;15.98;75.34
36502;BME280;25393;46.108;3.390;2023-05-02T07:35:47;98479.75;;;16.05;73.74
36502;BME280;25393;46.108;3.390;2023-05-02T07:38:16;98476.16;;;16.19;72.55
36502;BME280;25393;46.108;3.390;2023-05-02T07:40:43;98467.53;;;16.17;72.57
36502;BME280;25393;46.108;3.390;2023-05-02T07:43:12;98472.50;;;16.20;72.18
36502;BME280;25393;46.108;3.390;2023-05-02T07:45:40;98475.13;;;16.41;72.84
36502;BME280;25393;46.108;3.390;2023-05-02T07:48:07;98467.44;;;16.60;73.15
36502;BME280;25393;46.108;3.390;2023-05-02T07:50:34;98449.59;;;16.67;70.81
36502;BME280;25393;46.108;3.390;2023-05-02T07:53:00;98482.38;;;16.82;70.66
36502;BME280;25393;46.108;3.390;2023-05-02T07:55:27;98459.16;;;16.89;70.86
36502;BME280;25393;46.108;3.390;2023-05-02T07:57:53;98475.31;;;17.02;70.26
36502;BME280;25393;46.108;3.390;2023-05-02T08:00:20;98465.19;;;17.04;68.23
36502;BME280;25393;46.108;3.390;2023-05-02T08:02:46;98467.56;;;17.20;69.17
36502;BME280;25393;46.108;3.390;2023-05-02T08:05:14;98459.75;;;17.38;67.69
36502;BME280;25393;46.108;3.390;2023-05-02T08:07:43;98461.44;;;17.53;67.28
36502;BME280;25393;46.108;3.390;2023-05-02T08:10:16;98470.13;;;17.55;65.77
36502;BME280;25393;46.108;3.390;2023-05-02T08:12:45;98452.00;;;17.57;67.18
36502;BME280;25393;46.108;3.390;2023-05-02T08:15:11;98461.13;;;17.75;64.92
36502;BME280;25393;46.108;3.390;2023-05-02T08:17:40;98464.63;;;17.82;67.34
36502;BME280;25393;46.108;3.390;2023-05-02T08:20:07;98460.94;;;17.90;66.24
36502;BME280;25393;46.108;3.390;2023-05-02T08:22:33;98465.69;;;18.27;66.21
36502;BME280;25393;46.108;3.390;2023-05-02T08:25:00;98459.06;;;18.50;62.06
36502;BME280;25393;46.108;3.390;2023-05-02T08:27:26;98469.53;;;18.84;60.78
36502;BME280;25393;46.108;3.390;2023-05-02T08:29:53;98472.94;;;19.11;60.65
36502;BME280;25393;46.108;3.390;2023-05-02T08:32:19;98471.91;;;19.12;59.49
36502;BME280;25393;46.108;3.390;2023-05-02T08:34:47;98473.75;;;19.18;62.53
36502;BME280;25393;46.108;3.390;2023-05-02T08:37:17;98471.88;;;19.18;60.70
36502;BME280;25393;46.108;3.390;2023-05-02T08:39:46;98470.56;;;19.40;59.60
36502;BME280;25393;46.108;3.390;2023-05-02T08:42:13;98472.66;;;19.45;59.54
36502;BME280;25393;46.108;3.390;2023-05-02T08:44:41;98485.19;;;19.00;59.38
36502;BME280;25393;46.108;3.390;2023-05-02T08:47:10;98476.63;;;18.06;62.29
36502;BME280;25393;46.108;3.390;2023-05-02T08:49:41;98487.81;;;17.42;63.39
36502;BME280;25393;46.108;3.390;2023-05-02T08:52:08;98481.22;;;16.57;66.48
36502;BME280;25393;46.108;3.390;2023-05-02T08:54:37;98489.84;;;16.93;67.27
36502;BME280;25393;46.108;3.390;2023-05-02T08:57:04;98500.22;;;16.68;67.39
36502;BME280;25393;46.108;3.390;2023-05-02T08:59:31;98492.56;;;16.37;66.96
36502;BME280;25393;46.108;3.390;2023-05-02T09:02:11;98499.63;;;16.45;68.93
36502;BME280;25393;46.108;3.390;2023-05-02T09:04:46;98494.00;;;17.49;67.58
36502;BME280;25393;46.108;3.390;2023-05-02T09:07:18;98494.53;;;17.73;64.10
36502;BME280;25393;46.108;3.390;2023-05-02T09:09:48;98503.59;;;17.72;64.15
36502;BME280;25393;46.108;3.390;2023-05-02T09:12:23;98495.56;;;17.91;63.17
36502;BME280;25393;46.108;3.390;2023-05-02T09:17:45;98479.81;;;20.45;56.41
36502;BME280;25393;46.108;3.390;2023-05-02T09:20:14;98494.78;;;21.20;52.28
36502;BME280;25393;46.108;3.390;2023-05-02T09:22:48;98498.16;;;20.73;52.45
36502;BME280;25393;46.108;3.390;2023-05-02T09:25:16;98498.63;;;19.89;54.73
36502;BME280;25393;46.108;3.390;2023-05-02T09:27:53;98500.59;;;20.07;56.75
36502;BME280;25393;46.108;3.390;2023-05-02T09:30:21;98492.34;;;20.94;51.92
36502;BME280;25393;46.108;3.390;2023-05-02T09:32:49;98505.53;;;21.57;52.48
36502;BME280;25393;46.108;3.390;2023-05-02T09:35:21;98489.50;;;22.45;48.24
36502;BME280;25393;46.108;3.390;2023-05-02T09:37:58;98494.47;;;22.71;48.77
36502;BME280;25393;46.108;3.390;2023-05-02T09:40:24;98492.75;;;22.23;48.76
36502;BME280;25393;46.108;3.390;2023-05-02T09:42:52;98503.38;;;21.47;50.19
36502;BME280;25393;46.108;3.390;2023-05-02T09:45:28;98494.25;;;20.26;51.32
36502;BME280;25393;46.108;3.390;2023-05-02T09:48:00;98514.59;;;19.39;54.03
36502;BME280;25393;46.108;3.390;2023-05-02T09:50:32;98507.72;;;18.99;55.84
36502;BME280;25393;46.108;3.390;2023-05-02T09:53:08;98512.84;;;19.07;56.85
36502;BME280;25393;46.108;3.390;2023-05-02T09:55:36;98502.97;;;19.59;56.67
36502;BME280;25393;46.108;3.390;2023-05-02T09:58:03;98506.81;;;21.00;54.75
36502;BME280;25393;46.108;3.390;2023-05-02T10:03:06;98491.25;;;22.39;47.82
36502;BME280;25393;46.108;3.390;2023-05-02T10:05:38;98500.44;;;22.84;47.31
36502;BME280;25393;46.108;3.390;2023-05-02T10:08:06;98499.25;;;23.55;48.61
36502;BME280;25393;46.108;3.390;2023-05-02T10:10:35;98498.31;;;23.10;45.63
36502;BME280;25393;46.108;3.390;2023-05-02T10:13:03;98494.94;;;22.03;46.21
36502;BME280;25393;46.108;3.390;2023-05-02T10:15:31;98501.28;;;20.94;49.13
36502;BME280;25393;46.108;3.390;2023-05-02T10:18:06;98490.53;;;20.20;51.35
36502;BME280;25393;46.108;3.390;2023-05-02T10:20:34;98505.75;;;20.08;52.75
36502;BME280;25393;46.108;3.390;2023-05-02T10:23:03;98498.66;;;20.45;52.76
36502;BME280;25393;46.108;3.390;2023-05-02T10:25:32;98491.22;;;21.86;50.21
36502;BME280;25393;46.108;3.390;2023-05-02T10:27:58;98493.06;;;21.74;49.11
36502;BME280;25393;46.108;3.390;2023-05-02T10:30:25;98486.22;;;21.05;50.52
36502;BME280;25393;46.108;3.390;2023-05-02T10:32:52;98490.75;;;22.19;48.62
36502;BME280;25393;46.108;3.390;2023-05-02T10:35:24;98466.47;;;23.52;45.02
36502;BME280;25393;46.108;3.390;2023-05-02T10:37:52;98468.25;;;24.53;43.57
36502;BME280;25393;46.108;3.390;2023-05-02T10:40:19;98482.66;;;23.12;44.75
36502;BME280;25393;46.108;3.390;2023-05-02T10:42:46;98477.06;;;22.78;46.02
36502;BME280;25393;46.108;3.390;2023-05-02T10:45:30;98484.25;;;21.97;47.74
36502;BME280;25393;46.108;3.390;2023-05-02T10:48:19;98483.84;;;20.79;51.07
36502;BME280;25393;46.108;3.390;2023-05-02T10:50:50;98478.97;;;21.42;48.57
36502;BME280;25393;46.108;3.390;2023-05-02T10:56:19;98474.38;;;22.78;48.14
36502;BME280;25393;46.108;3.390;2023-05-02T10:58:48;98460.19;;;23.63;46.06
36502;BME280;25393;46.108;3.390;2023-05-02T11:03:59;98453.72;;;25.41;40.63
36502;BME280;25393;46.108;3.390;2023-05-02T11:06:27;98459.91;;;24.93;40.92
36502;BME280;25393;46.108;3.390;2023-05-02T11:11:50;98447.25;;;25.20;38.95
36502;BME280;25393;46.108;3.390;2023-05-02T11:24:50;98435.88;;;26.62;37.04
36502;BME280;25393;46.108;3.390;2023-05-02T11:29:56;98432.28;;;26.51;36.12
36502;BME280;25393;46.108;3.390;2023-05-02T11:32:25;98442.34;;;24.78;38.24
36502;BME280;25393;46.108;3.390;2023-05-02T11:35:22;98446.03;;;24.34;40.40
36502;BME280;25393;46.108;3.390;2023-05-02T11:37:52;98442.72;;;25.25;40.64
36502;BME280;25393;46.108;3.390;2023-05-02T11:40:19;98445.31;;;25.91;38.51
36502;BME280;25393;46.108;3.390;2023-05-02T11:42:46;98437.97;;;26.18;35.85
36502;BME280;25393;46.108;3.390;2023-05-02T11:45:13;98434.56;;;26.01;35.82
36502;BME280;25393;46.108;3.390;2023-05-02T11:47:42;98442.41;;;25.97;36.71
36502;BME280;25393;46.108;3.390;2023-05-02T11:50:11;98420.28;;;26.47;36.94
36502;BME280;25393;46.108;3.390;2023-05-02T11:52:39;98428.31;;;26.69;35.99
36502;BME280;25393;46.108;3.390;2023-05-02T11:55:09;98422.34;;;27.24;36.06
36502;BME280;25393;46.108;3.390;2023-05-02T11:57:37;98427.25;;;27.32;36.81
36502;BME280;25393;46.108;3.390;2023-05-02T12:00:05;98415.66;;;27.47;36.13
36502;BME280;25393;46.108;3.390;2023-05-02T12:02:38;98425.22;;;26.97;36.14
36502;BME280;25393;46.108;3.390;2023-05-02T12:05:11;98429.72;;;25.76;37.01
36502;BME280;25393;46.108;3.390;2023-05-02T12:07:47;98429.19;;;24.32;38.96
36502;BME280;25393;46.108;3.390;2023-05-02T12:10:15;98433.25;;;23.28;39.68
36502;BME280;25393;46.108;3.390;2023-05-02T12:12:43;98434.00;;;23.97;40.41
36502;BME280;25393;46.108;3.390;2023-05-02T12:15:11;98425.34;;;24.45;38.92
36502;BME280;25393;46.108;3.390;2023-05-02T12:17:41;98429.06;;;24.77;36.97
36502;BME280;25393;46.108;3.390;2023-05-02T12:20:09;98419.13;;;25.74;36.06
36502;BME280;25393;46.108;3.390;2023-05-02T12:22:36;98409.81;;;26.66;35.24
36502;BME280;25393;46.108;3.390;2023-05-02T12:25:04;98414.19;;;27.29;35.49
36502;BME280;25393;46.108;3.390;2023-05-02T12:27:34;98422.56;;;26.65;36.92
36502;BME280;25393;46.108;3.390;2023-05-02T12:30:01;98410.63;;;25.66;37.63
36502;BME280;25393;46.108;3.390;2023-05-02T12:32:33;98421.56;;;25.76;38.13
36502;BME280;25393;46.108;3.390;2023-05-02T12:35:01;98408.34;;;24.71;38.17
36502;BME280;25393;46.108;3.390;2023-05-02T12:37:29;98396.38;;;23.95;39.15
36502;BME280;25393;46.108;3.390;2023-05-02T12:39:55;98420.75;;;25.27;39.22
36502;BME280;25393;46.108;3.390;2023-05-02T12:42:23;98419.72;;;25.55;37.03
36502;BME280;25393;46.108;3.390;2023-05-02T12:44:51;98420.78;;;24.83;38.03
36502;BME280;25393;46.108;3.390;2023-05-02T12:47:19;98430.00;;;23.99;38.88
36502;BME280;25393;46.108;3.390;2023-05-02T12:49:54;98433.84;;;24.53;38.16
36502;BME280;25393;46.108;3.390;2023-05-02T12:52:48;98420.66;;;25.65;36.30
36502;BME280;25393;46.108;3.390;2023-05-02T12:55:19;98414.00;;;26.42;36.47
36502;BME280;25393;46.108;3.390;2023-05-02T12:57:46;98412.00;;;27.31;34.03
36502;BME280;25393;46.108;3.390;2023-05-02T13:00:18;98409.44;;;27.82;33.80
36502;BME280;25393;46.108;3.390;2023-05-02T13:02:48;98422.53;;;27.07;33.39
36502;BME280;25393;46.108;3.390;2023-05-02T13:05:18;98423.72;;;27.31;34.32
36502;BME280;25393;46.108;3.390;2023-05-02T13:07:48;98424.66;;;26.95;34.28
36502;BME280;25393;46.108;3.390;2023-05-02T13:10:15;98429.13;;;26.27;33.20
36502;BME280;25393;46.108;3.390;2023-05-02T13:12:45;98422.41;;;25.28;34.35
36502;BME280;25393;46.108;3.390;2023-05-02T13:15:13;98432.22;;;24.52;36.34
36502;BME280;25393;46.108;3.390;2023-05-02T13:17:42;98427.66;;;24.74;38.38
36502;BME280;25393;46.108;3.390;2023-05-02T13:20:09;98420.25;;;25.52;36.48
36502;BME280;25393;46.108;3.390;2023-05-02T13:22:36;98424.00;;;26.04;35.75
36502;BME280;25393;46.108;3.390;2023-05-02T13:25:04;98433.31;;;25.33;35.41
36502;BME280;25393;46.108;3.390;2023-05-02T13:27:30;98424.25;;;24.62;36.42
36502;BME280;25393;46.108;3.390;2023-05-02T13:30:00;98425.94;;;24.68;37.70
36502;BME280;25393;46.108;3.390;2023-05-02T13:32:34;98415.78;;;24.97;37.79
36502;BME280;25393;46.108;3.390;2023-05-02T13:35:01;98414.59;;;25.58;33.63
36502;BME280;25393;46.108;3.390;2023-05-02T13:37:29;98405.97;;;26.25;32.80
36502;BME280;25393;46.108;3.390;2023-05-02T13:39:56;98395.22;;;26.35;34.94
36502;BME280;25393;46.108;3.390;2023-05-02T13:42:22;98405.09;;;26.51;33.03
36502;BME280;25393;46.108;3.390;2023-05-02T13:44:49;98410.25;;;26.16;32.95
36502;BME280;25393;46.108;3.390;2023-05-02T13:47:15;98394.00;;;26.58;33.77
36502;BME280;25393;46.108;3.390;2023-05-02T13:49:43;98382.34;;;25.89;35.21